Time;durP1;ratioP1;P1;durP2;ratioP2;P2;SDS_P1;SDS_P2;PMS_P1;PMS_P2;Temp;Humidity;BMP_temperature;BMP_pressure;BME280_temperature;BME280_humidity;BME280_pressure;Samples;Min_cycle;Max_cycle;Signal;HPM_P1;HPM_P2
2021/07/23 00:00:45;;;;;;;2.22;2.13;;;25.90;46.70;;;;;;5049935;28;20079;-70
2021/07/23 00:03:13;;;;;;;1.88;1.77;;;25.80;46.60;;;;;;5050198;28;20049;-70
2021/07/23 00:05:40;;;;;;;2.25;2.08;;;25.80;46.70;;;;;;5050510;28;20646;-70
2021/07/23 00:08:07;;;;;;;2.67;2.47;;;25.80;46.70;;;;;;5048805;28;20497;-70
2021/07/23 00:10:35;;;;;;;3.85;2.30;;;25.80;46.70;;;;;;5049721;28;20076;-70
2021/07/23 00:13:02;;;;;;;2.38;2.10;;;25.80;46.70;;;;;;5048521;28;20045;-65
2021/07/23 00:15:30;;;;;;;2.22;2.10;;;25.80;46.80;;;;;;5049438;28;20590;-70
2021/07/23 00:17:57;;;;;;;2.03;1.92;;;25.70;46.70;;;;;;5049520;28;20076;-71
2021/07/23 00:20:25;;;;;;;2.00;1.88;;;25.80;46.80;;;;;;5049568;28;20049;-71
2021/07/23 00:22:52;;;;;;;2.47;2.28;;;25.80;46.80;;;;;;5048392;28;20094;-70
2021/07/23 00:25:19;;;;;;;2.17;2.08;;;25.80;46.80;;;;;;5050189;28;20049;-70
2021/07/23 00:27:47;;;;;;;2.22;2.13;;;25.70;46.80;;;;;;5049502;28;20037;-70
2021/07/23 00:30:14;;;;;;;1.80;1.70;;;25.80;46.90;;;;;;5049498;28;20044;-71
2021/07/23 00:32:41;;;;;;;1.90;1.80;;;25.70;46.80;;;;;;5049473;28;20096;-70
2021/07/23 00:35:09;;;;;;;2.20;2.00;;;25.70;46.80;;;;;;5048240;28;20088;-70
2021/07/23 00:37:37;;;;;;;2.13;1.92;;;25.70;46.80;;;;;;5051021;28;20095;-70
2021/07/23 00:40:06;;;;;;;2.38;2.17;;;25.70;46.90;;;;;;5069000;28;20052;-70
2021/07/23 00:42:41;;;;;;;3.17;2.28;;;25.70;46.90;;;;;;5069667;28;20128;-70
2021/07/23 00:45:09;;;;;;;2.38;2.15;;;25.70;46.90;;;;;;5069015;28;20048;-70
2021/07/23 00:47:38;;;;;;;2.10;2.00;;;25.70;47.00;;;;;;5069358;28;20485;-70
2021/07/23 00:50:07;;;;;;;1.73;1.60;;;25.70;47.00;;;;;;5068029;28;20053;-70
2021/07/23 00:52:35;;;;;;;2.45;2.25;;;25.70;46.90;;;;;;5068998;28;20087;-70
2021/07/23 00:55:03;;;;;;;2.10;2.00;;;25.70;47.00;;;;;;5068312;28;20527;-70
2021/07/23 00:57:31;;;;;;;2.05;1.90;;;25.70;46.90;;;;;;5068793;28;20084;-70
2021/07/23 01:00:00;;;;;;;2.33;2.15;;;25.70;46.90;;;;;;5069099;28;20048;-70
2021/07/23 01:02:27;;;;;;;2.35;2.15;;;25.70;47.00;;;;;;5069083;28;20119;-69
2021/07/23 01:04:54;;;;;;;2.30;2.20;;;25.70;46.90;;;;;;5068503;28;20044;-70
2021/07/23 01:07:22;;;;;;;2.08;1.92;;;25.70;46.90;;;;;;5068975;28;20128;-70
2021/07/23 01:09:49;;;;;;;2.13;2.03;;;25.70;46.90;;;;;;5068759;28;20408;-70
2021/07/23 01:12:17;;;;;;;2.15;2.00;;;25.70;47.00;;;;;;5068669;28;20816;-70
2021/07/23 01:14:44;;;;;;;1.90;1.80;;;25.70;46.90;;;;;;5068381;28;20050;-70
2021/07/23 01:17:11;;;;;;;2.55;2.13;;;25.70;47.50;;;;;;5069040;28;20071;-70
2021/07/23 01:19:49;;;;;;;2.25;2.08;;;25.70;47.00;;;;;;5067518;28;20052;-70
2021/07/23 01:22:20;;;;;;;2.13;2.03;;;25.70;47.00;;;;;;5068255;28;20129;-70
2021/07/23 01:24:48;;;;;;;2.22;2.03;;;25.70;47.10;;;;;;5068214;28;20041;-70
2021/07/23 01:27:16;;;;;;;2.13;2.03;;;25.70;47.10;;;;;;5068139;28;20521;-70
2021/07/23 01:29:43;;;;;;;2.78;2.50;;;25.70;47.10;;;;;;5068219;28;20060;-70
2021/07/23 01:32:11;;;;;;;2.05;1.95;;;25.70;47.10;;;;;;5068314;28;20124;-70
2021/07/23 01:34:39;;;;;;;2.13;2.00;;;25.70;47.10;;;;;;5066626;28;20052;-70
2021/07/23 01:37:06;;;;;;;1.85;1.75;;;25.70;47.20;;;;;;5068452;28;20132;-70
2021/07/23 01:39:35;;;;;;;1.90;1.80;;;25.70;47.20;;;;;;5050236;28;20063;-70
2021/07/23 01:42:05;;;;;;;2.55;2.35;;;25.70;47.20;;;;;;5047917;28;20543;-70
2021/07/23 01:44:33;;;;;;;2.45;2.00;;;25.70;47.20;;;;;;5050010;28;20049;-70
2021/07/23 01:47:00;;;;;;;2.20;2.10;;;25.70;47.30;;;;;;5048087;28;20080;-70
2021/07/23 01:49:27;;;;;;;2.22;2.08;;;25.60;47.20;;;;;;5047157;28;20049;-70
2021/07/23 01:51:54;;;;;;;1.98;1.88;;;25.70;47.30;;;;;;5047762;28;20128;-70
2021/07/23 01:54:21;;;;;;;2.20;2.08;;;25.70;47.30;;;;;;5047915;28;20053;-70
2021/07/23 01:56:49;;;;;;;2.20;2.10;;;25.60;47.20;;;;;;5047829;28;20505;-65
2021/07/23 01:59:16;;;;;;;2.10;2.00;;;25.60;47.30;;;;;;5048312;28;20045;-65
2021/07/23 02:01:43;;;;;;;2.00;1.90;;;25.60;47.30;;;;;;5047346;28;20045;-70
2021/07/23 02:04:10;;;;;;;2.15;2.00;;;25.60;47.30;;;;;;5048140;28;20064;-70
2021/07/23 02:06:37;;;;;;;2.53;2.33;;;25.60;47.30;;;;;;5047570;28;20080;-69
2021/07/23 02:09:05;;;;;;;2.20;2.10;;;25.60;47.30;;;;;;5047944;28;20048;-70
2021/07/23 02:11:33;;;;;;;3.17;2.10;;;25.60;47.30;;;;;;5046281;28;20045;-69
2021/07/23 02:14:03;;;;;;;2.50;1.98;;;25.60;47.30;;;;;;5047943;28;20053;-70
2021/07/23 02:16:30;;;;;;;;;;;25.60;47.30;;;;;;5047583;28;20052;-70
2021/07/23 02:18:57;;;;;;;2.03;1.92;;;25.60;47.30;;;;;;5047706;28;19927;-70
2021/07/23 02:21:24;;;;;;;2.47;2.28;;;25.60;47.40;;;;;;5046225;28;20409;-70
2021/07/23 02:23:51;;;;;;;2.08;1.98;;;25.60;47.40;;;;;;5047667;28;20137;-71
2021/07/23 02:26:20;;;;;;;2.38;1.80;;;25.60;47.40;;;;;;5046590;28;20405;-70
2021/07/23 02:28:48;;;;;;;2.08;1.98;;;25.60;47.40;;;;;;5047669;28;20528;-69
2021/07/23 02:31:18;;;;;;;2.17;2.00;;;25.60;47.40;;;;;;5047935;28;20048;-70
2021/07/23 02:33:46;;;;;;;2.17;2.08;;;25.60;47.40;;;;;;5047173;28;20130;-70
2021/07/23 02:36:13;;;;;;;1.92;1.83;;;25.60;47.40;;;;;;5047649;28;20525;-70
2021/07/23 02:38:41;;;;;;;1.67;1.58;;;25.60;47.40;;;;;;5051783;28;20476;-70
2021/07/23 02:41:08;;;;;;;1.88;1.77;;;25.60;47.40;;;;;;5055192;28;20131;-70
2021/07/23 02:43:36;;;;;;;1.85;1.75;;;25.60;47.40;;;;;;5046308;28;20485;-70
2021/07/23 02:46:03;;;;;;;1.80;1.67;;;25.60;47.40;;;;;;5068229;28;20056;-69
2021/07/23 02:48:30;;;;;;;2.25;2.05;;;25.60;47.40;;;;;;5066832;28;20680;-70
2021/07/23 02:50:57;;;;;;;2.08;1.98;;;25.60;47.40;;;;;;5067576;28;20048;-69
2021/07/23 02:53:24;;;;;;;1.88;1.77;;;25.60;47.40;;;;;;5066119;28;20044;-70
2021/07/23 02:55:51;;;;;;;2.08;1.98;;;25.60;47.50;;;;;;5067000;28;20049;-70
2021/07/23 02:58:18;;;;;;;2.00;1.90;;;25.60;47.40;;;;;;5047718;28;20115;-70
2021/07/23 03:00:46;;;;;;;2.00;1.80;;;25.60;47.40;;;;;;5047333;28;20123;-70
2021/07/23 03:03:13;;;;;;;1.83;1.73;;;25.60;47.50;;;;;;5046192;28;20045;-65
2021/07/23 03:05:41;;;;;;;1.65;1.55;;;25.60;47.50;;;;;;5045853;28;20132;-70
2021/07/23 03:08:09;;;;;;;1.85;1.75;;;25.60;47.50;;;;;;5047652;28;20076;-70
2021/07/23 03:10:36;;;;;;;1.92;1.83;;;25.60;48.10;;;;;;5046794;28;20049;-70
2021/07/23 03:13:03;;;;;;;2.20;1.75;;;25.60;47.50;;;;;;5047063;28;20136;-70
2021/07/23 03:15:30;;;;;;;2.13;2.03;;;25.50;47.50;;;;;;5047322;28;20049;-70
2021/07/23 03:17:59;;;;;;;1.65;1.55;;;25.60;47.60;;;;;;5047162;28;20490;-70
2021/07/23 03:20:26;;;;;;;1.83;1.73;;;25.60;47.60;;;;;;5046765;28;20059;-70
2021/07/23 03:22:53;;;;;;;2.38;2.17;;;25.50;47.50;;;;;;5046443;28;20049;-71
2021/07/23 03:25:21;;;;;;;2.33;2.13;;;25.50;47.50;;;;;;5047059;28;20041;-70
2021/07/23 03:27:48;;;;;;;1.73;1.63;;;25.50;47.50;;;;;;5046826;28;20049;-70
2021/07/23 03:30:15;;;;;;;2.30;2.10;;;25.50;47.50;;;;;;5050274;28;20533;-70
2021/07/23 03:32:42;;;;;;;1.83;1.73;;;25.50;47.50;;;;;;5052800;28;20523;-70
2021/07/23 03:35:09;;;;;;;2.30;2.10;;;25.50;47.50;;;;;;5070413;28;20056;-70
2021/07/23 03:37:36;;;;;;;1.60;1.50;;;25.50;47.50;;;;;;5069329;28;20493;-70
2021/07/23 03:40:04;;;;;;;2.42;1.65;;;25.50;47.50;;;;;;5070225;28;20084;-70
2021/07/23 03:42:33;;;;;;;2.13;1.90;;;25.60;47.60;;;;;;5065357;28;20136;-70
2021/07/23 03:45:00;;;;;;;1.80;1.70;;;25.60;47.60;;;;;;5058741;28;20717;-70
2021/07/23 03:47:27;;;;;;;1.80;1.70;;;25.60;47.50;;;;;;5058748;28;20516;-70
2021/07/23 03:49:54;;;;;;;2.03;1.92;;;25.60;47.60;;;;;;5060209;28;20079;-70
2021/07/23 03:52:21;;;;;;;1.92;1.67;;;25.60;47.50;;;;;;5057673;28;20132;-70
2021/07/23 03:54:48;;;;;;;1.88;1.77;;;25.60;47.50;;;;;;5048738;28;20051;-70
2021/07/23 03:57:15;;;;;;;2.05;1.88;;;25.60;47.80;;;;;;5050477;28;20051;-70
2021/07/23 03:59:44;;;;;;;2.58;1.52;;;25.60;47.40;;;;;;5049859;28;20525;-71
2021/07/23 04:02:11;;;;;;;1.85;1.75;;;25.70;47.40;;;;;;5050002;28;20048;-70
2021/07/23 04:04:39;;;;;;;2.13;1.90;;;25.70;47.40;;;;;;5050433;28;20072;-70
2021/07/23 04:07:06;;;;;;;1.85;1.75;;;25.70;47.30;;;;;;5050108;28;20139;-70
2021/07/23 04:09:33;;;;;;;2.20;2.10;;;25.70;47.30;;;;;;5049177;28;20060;-70
2021/07/23 04:12:00;;;;;;;1.90;1.80;;;25.70;47.30;;;;;;5053584;28;20076;-71
2021/07/23 04:14:27;;;;;;;1.52;1.42;;;25.70;47.30;;;;;;5061997;28;20151;-71
2021/07/23 04:16:55;;;;;;;2.03;1.83;;;25.70;47.20;;;;;;5069899;28;20045;-70
2021/07/23 04:19:22;;;;;;;1.80;1.70;;;25.70;47.20;;;;;;5065842;28;20052;-71
2021/07/23 04:21:49;;;;;;;2.22;2.10;;;25.70;47.20;;;;;;5069399;28;20044;-70
2021/07/23 04:24:16;;;;;;;2.00;1.80;;;25.80;47.20;;;;;;5069482;28;20048;-70
2021/07/23 04:26:44;;;;;;;2.15;1.83;;;25.70;47.10;;;;;;5068922;28;20090;-70
2021/07/23 04:29:11;;;;;;;2.25;2.08;;;25.80;47.10;;;;;;5069098;28;20084;-70
2021/07/23 04:31:38;;;;;;;1.58;1.50;;;25.80;47.10;;;;;;5049700;28;20094;-70
2021/07/23 04:34:05;;;;;;;1.70;1.60;;;25.80;47.00;;;;;;5054637;28;20033;-70
2021/07/23 04:36:35;;;;;;;1.88;1.75;;;25.80;47.00;;;;;;5056551;28;20084;-70
2021/07/23 04:39:03;;;;;;;2.10;2.00;;;25.80;47.00;;;;;;5059203;28;20047;-70
2021/07/23 04:41:31;;;;;;;1.77;1.67;;;25.90;47.00;;;;;;5064044;28;20136;-70
2021/07/23 04:43:58;;;;;;;1.80;1.70;;;25.90;47.00;;;;;;5056960;28;20072;-71
2021/07/23 04:46:25;;;;;;;1.88;1.77;;;25.90;46.90;;;;;;5058654;28;20051;-70
2021/07/23 04:48:52;;;;;;;2.20;2.10;;;25.90;46.90;;;;;;5057342;28;20362;-71
2021/07/23 04:51:19;;;;;;;2.03;1.92;;;25.90;46.80;;;;;;5056757;28;20080;-71
2021/07/23 04:53:48;;;;;;;2.17;2.08;;;25.90;46.80;;;;;;5059678;28;20143;-70
2021/07/23 04:56:15;;;;;;;2.30;2.20;;;26.00;46.90;;;;;;5057482;28;20156;-71
2021/07/23 04:58:42;;;;;;;1.80;1.70;;;26.00;46.70;;;;;;5057538;28;20539;-71
2021/07/23 05:01:09;;;;;;;2.22;2.03;;;26.00;46.70;;;;;;5052078;28;20049;-71
2021/07/23 05:03:39;;;;;;;1.77;1.67;;;26.00;46.60;;;;;;5053219;28;20045;-70
2021/07/23 05:06:08;;;;;;;1.92;1.83;;;26.00;46.50;;;;;;5058894;28;20777;-70
2021/07/23 05:08:35;;;;;;;1.83;1.73;;;26.00;46.50;;;;;;5047765;28;20076;-70
2021/07/23 05:11:07;;;;;;;2.15;2.03;;;26.00;46.60;;;;;;5055487;28;20474;-70
2021/07/23 05:13:35;;;;;;;2.17;2.08;;;26.00;46.70;;;;;;5048240;28;20102;-70
2021/07/23 05:16:04;;;;;;;2.10;2.00;;;25.90;46.70;;;;;;5047016;28;20063;-70
2021/07/23 05:18:33;;;;;;;2.55;2.30;;;25.90;46.90;;;;;;5046316;28;20051;-71
2021/07/23 05:21:00;;;;;;;2.50;2.20;;;25.80;47.10;;;;;;5046609;28;20045;-71
2021/07/23 05:23:27;;;;;;;2.50;2.13;;;25.70;47.20;;;;;;5054327;28;20086;-71
2021/07/23 05:25:54;;;;;;;3.17;2.30;;;25.60;47.50;;;;;;5052412;28;20131;-71
2021/07/23 05:28:23;;;;;;;2.25;1.95;;;25.40;47.80;;;;;;5057934;28;20045;-70
2021/07/23 05:31:04;;;;;;;2.55;1.90;;;25.30;48.20;;;;;;5054426;28;20126;-70
2021/07/23 05:33:31;;;;;;;2.35;2.20;;;25.10;48.60;;;;;;5053467;28;20074;-70
2021/07/23 05:35:58;;;;;;;2.90;2.70;;;24.90;48.90;;;;;;5042228;28;20041;-71
2021/07/23 05:38:26;;;;;;;2.70;2.28;;;24.80;49.10;;;;;;5046843;28;20064;-68
2021/07/23 05:40:53;;;;;;;2.45;2.33;;;24.60;49.40;;;;;;5055133;28;20054;-73
2021/07/23 05:43:20;;;;;;;2.47;2.28;;;24.50;49.90;;;;;;5051841;28;20168;-73
2021/07/23 05:45:48;;;;;;;2.67;2.25;;;24.30;50.10;;;;;;5048757;28;20127;-67
2021/07/23 05:48:15;;;;;;;5.47;2.60;;;24.20;50.60;;;;;;5054567;28;20087;-69
2021/07/23 05:50:43;;;;;;;2.90;2.67;;;24.10;51.10;;;;;;5050034;28;20128;-69
2021/07/23 05:53:10;;;;;;;3.47;2.75;;;24.00;51.10;;;;;;5056511;28;20041;-69
2021/07/23 05:55:37;;;;;;;3.13;2.58;;;23.90;51.10;;;;;;5053771;28;20053;-69
2021/07/23 05:58:04;;;;;;;3.28;2.60;;;23.90;51.20;;;;;;5048555;28;20090;-68
2021/07/23 06:00:31;;;;;;;2.88;2.67;;;23.80;51.30;;;;;;5051779;28;20049;-68
2021/07/23 06:03:03;;;;;;;3.30;3.00;;;23.70;51.30;;;;;;5054332;28;20051;-66
2021/07/23 06:05:30;;;;;;;2.70;2.50;;;23.70;51.60;;;;;;5053426;28;20044;-70
2021/07/23 06:07:57;;;;;;;3.80;2.80;;;23.60;51.80;;;;;;5050121;28;20071;-67
2021/07/23 06:10:24;;;;;;;3.10;2.80;;;23.60;52.40;;;;;;5052736;28;20045;-67
2021/07/23 06:12:52;;;;;;;3.00;2.70;;;23.50;52.20;;;;;;5050929;28;20098;-68
2021/07/23 06:15:19;;;;;;;3.25;2.95;;;23.50;52.60;;;;;;5046533;28;20121;-67
2021/07/23 06:17:47;;;;;;;4.95;3.45;;;23.40;52.60;;;;;;5052610;28;20168;-67
2021/07/23 06:20:14;;;;;;;3.60;2.97;;;23.40;52.80;;;;;;5044724;28;20128;-68
2021/07/23 06:22:41;;;;;;;3.38;3.08;;;23.40;53.10;;;;;;5044295;28;20053;-63
2021/07/23 06:25:10;;;;;;;4.85;3.22;;;23.40;53.30;;;;;;5053287;28;20040;-63
2021/07/23 06:27:37;;;;;;;3.45;3.15;;;23.40;53.70;;;;;;5048149;28;20072;-63
2021/07/23 06:30:05;;;;;;;4.47;3.35;;;23.30;53.90;;;;;;5048181;28;20048;-66
2021/07/23 06:32:33;;;;;;;4.13;2.95;;;23.30;54.10;;;;;;5044101;28;20102;-71
2021/07/23 06:35:00;;;;;;;3.47;3.15;;;23.30;54.10;;;;;;5045914;28;20044;-72
2021/07/23 06:38:04;;;;;;;3.38;3.03;;;23.30;54.30;;;;;;5049665;28;20059;-71
2021/07/23 06:40:31;;;;;;;5.25;3.45;;;23.30;54.30;;;;;;5046614;28;20477;-66
2021/07/23 06:42:58;;;;;;;4.03;2.78;;;23.30;54.50;;;;;;5052381;28;20071;-66
2021/07/23 06:45:25;;;;;;;4.20;3.80;;;23.20;54.40;;;;;;5050811;28;20041;-65
2021/07/23 06:47:52;;;;;;;4.97;3.33;;;23.20;54.40;;;;;;5049811;28;20069;-62
2021/07/23 06:50:22;;;;;;;3.42;3.13;;;23.20;54.50;;;;;;5049828;28;20128;-61
2021/07/23 06:52:49;;;;;;;4.28;3.88;;;23.20;54.50;;;;;;5043776;28;20548;-68
2021/07/23 06:55:16;;;;;;;4.90;3.75;;;23.20;54.60;;;;;;5044188;28;20051;-69
2021/07/23 06:57:43;;;;;;;4.38;3.88;;;23.20;54.50;;;;;;5049848;28;20071;-66
2021/07/23 07:00:11;;;;;;;5.70;3.10;;;23.20;54.50;;;;;;5051903;28;20076;-72
2021/07/23 07:02:39;;;;;;;6.22;3.63;;;23.20;54.40;;;;;;5052002;28;20127;-67
2021/07/23 07:05:06;;;;;;;3.90;3.60;;;23.30;54.50;;;;;;5058185;28;20082;-67
2021/07/23 07:07:34;;;;;;;4.43;3.47;;;23.20;54.70;;;;;;5053549;28;20063;-68
2021/07/23 07:10:01;;;;;;;4.18;3.60;;;23.20;54.80;;;;;;5054117;28;20875;-65
2021/07/23 07:12:28;;;;;;;6.25;3.90;;;23.20;54.90;;;;;;5056101;28;20040;-72
2021/07/23 07:14:56;;;;;;;3.47;3.10;;;23.30;54.90;;;;;;5054714;28;20041;-65
2021/07/23 07:17:28;;;;;;;3.72;3.40;;;23.30;54.90;;;;;;5057164;28;21259;-71
2021/07/23 07:19:57;;;;;;;4.05;3.65;;;23.30;54.70;;;;;;5055117;28;20076;-66
2021/07/23 07:22:25;;;;;;;4.55;3.60;;;23.30;54.60;;;;;;5058635;28;20190;-71
2021/07/23 07:24:53;;;;;;;3.85;3.38;;;23.30;54.60;;;;;;5051934;28;20136;-65
2021/07/23 07:27:20;;;;;;;4.10;3.70;;;23.40;54.70;;;;;;5054033;28;20151;-67
2021/07/23 07:29:51;;;;;;;3.78;3.47;;;23.30;54.60;;;;;;5048635;28;20037;-66
2021/07/23 07:32:18;;;;;;;3.97;3.58;;;23.40;54.70;;;;;;5055044;28;20041;-73
2021/07/23 07:34:45;;;;;;;5.80;3.35;;;23.40;54.80;;;;;;5056909;28;20049;-65
2021/07/23 07:37:13;;;;;;;4.78;3.30;;;23.40;55.30;;;;;;5055270;28;20064;-63
2021/07/23 07:39:48;;;;;;;3.70;3.40;;;23.40;54.90;;;;;;5055483;28;20732;-62
2021/07/23 07:42:16;;;;;;;4.20;3.80;;;23.50;55.00;;;;;;5056032;28;20116;-62
2021/07/23 07:44:46;;;;;;;3.70;3.33;;;23.50;55.50;;;;;;5045726;28;20103;-66
2021/07/23 07:47:13;;;;;;;4.03;3.47;;;23.50;55.00;;;;;;5052136;28;20127;-71
2021/07/23 07:49:40;;;;;;;3.75;3.17;;;23.50;55.00;;;;;;5053063;28;20491;-72
2021/07/23 07:52:08;;;;;;;3.47;3.17;;;23.50;54.90;;;;;;5047335;28;20596;-64
2021/07/23 07:54:35;;;;;;;4.25;3.85;;;23.50;54.90;;;;;;5055810;28;20131;-71
2021/07/23 07:57:07;;;;;;;3.90;3.50;;;23.50;54.90;;;;;;5056413;28;20639;-66
2021/07/23 07:59:40;;;;;;;3.65;3.35;;;23.50;54.80;;;;;;5054563;28;20054;-65
2021/07/23 08:02:08;;;;;;;3.85;3.47;;;23.50;54.80;;;;;;5054606;28;20056;-65
2021/07/23 08:04:37;;;;;;;3.58;3.28;;;23.50;55.20;;;;;;5052744;28;20056;-71
2021/07/23 08:07:13;;;;;;;4.60;3.40;;;23.60;54.60;;;;;;5057413;28;20089;-69
2021/07/23 08:09:52;;;;;;;3.72;3.42;;;23.60;54.70;;;;;;5058133;28;20542;-69
2021/07/23 08:12:23;;;;;;;4.70;3.63;;;23.60;54.70;;;;;;5053020;28;20052;-70
2021/07/23 08:14:51;;;;;;;8.88;4.03;;;23.60;54.70;;;;;;5055854;28;20045;-64
2021/07/23 08:17:18;;;;;;;6.85;3.80;;;23.60;54.80;;;;;;5054986;28;20056;-61
2021/07/23 08:19:46;;;;;;;4.25;3.70;;;23.60;55.10;;;;;;5059767;28;20075;-64
2021/07/23 08:22:13;;;;;;;6.60;4.00;;;23.60;55.20;;;;;;5054113;28;20044;-61
2021/07/23 08:24:41;;;;;;;6.05;3.33;;;23.70;55.10;;;;;;5053216;28;20051;-67
2021/07/23 08:27:08;;;;;;;4.05;3.55;;;23.70;55.00;;;;;;5050531;28;20661;-65
2021/07/23 08:29:35;;;;;;;3.97;3.63;;;23.70;54.80;;;;;;5054936;28;20505;-66
2021/07/23 08:32:10;;;;;;;4.68;3.53;;;23.70;54.80;;;;;;5059740;28;20071;-63
2021/07/23 08:34:38;;;;;;;6.05;3.25;;;23.70;54.70;;;;;;5050409;28;20561;-69
2021/07/23 08:37:06;;;;;;;5.38;3.40;;;23.70;54.50;;;;;;5051885;28;20124;-64
2021/07/23 08:39:34;;;;;;;11.20;3.80;;;23.70;54.40;;;;;;5057064;28;20083;-64
2021/07/23 08:42:28;;;;;;;5.30;3.47;;;23.80;54.30;;;;;;5056156;28;20055;-70
2021/07/23 08:44:57;;;;;;;3.65;3.17;;;23.80;54.20;;;;;;5050286;28;21039;-66
2021/07/23 08:47:24;;;;;;;4.18;3.78;;;23.80;54.10;;;;;;5054034;28;20076;-65
2021/07/23 08:49:52;;;;;;;4.10;3.47;;;23.80;54.00;;;;;;5051807;28;20114;-66
2021/07/23 08:52:41;;;;;;;6.28;3.60;;;23.80;53.80;;;;;;5054496;28;20069;-65
2021/07/23 08:55:11;;;;;;;5.57;3.80;;;23.80;53.70;;;;;;5056820;28;20119;-66
2021/07/23 08:57:38;;;;;;;3.90;3.50;;;23.80;53.60;;;;;;5061775;28;20131;-65
2021/07/23 09:00:19;;;;;;;3.70;3.40;;;23.80;53.60;;;;;;5056316;28;20052;-65
2021/07/23 09:02:59;;;;;;;10.93;3.88;;;23.80;53.50;;;;;;5059936;28;20044;-69
2021/07/23 09:05:35;;;;;;;4.63;3.92;;;23.80;53.40;;;;;;5049652;28;20095;-65
2021/07/23 09:08:12;;;;;;;4.88;4.05;;;23.80;53.40;;;;;;5047670;28;20047;-66
2021/07/23 09:10:40;;;;;;;3.75;3.45;;;23.80;53.90;;;;;;5049507;28;20063;-65
2021/07/23 09:13:09;;;;;;;3.78;3.40;;;23.80;53.40;;;;;;5048918;28;20124;-67
2021/07/23 09:15:42;;;;;;;3.53;3.22;;;23.80;53.30;;;;;;5046481;28;20051;-66
2021/07/23 09:18:28;;;;;;;3.88;3.47;;;23.90;53.40;;;;;;5048200;28;20059;-67
2021/07/23 09:21:01;;;;;;;4.95;3.72;;;23.90;53.30;;;;;;5049742;28;20048;-67
2021/07/23 09:23:34;;;;;;;5.43;3.90;;;23.90;53.20;;;;;;5048566;28;20037;-67
2021/07/23 09:26:15;;;;;;;4.22;3.83;;;23.90;53.60;;;;;;5044831;28;20045;-66
2021/07/23 09:28:47;;;;;;;4.22;3.83;;;23.90;53.10;;;;;;5049101;28;20060;-71
2021/07/23 09:31:28;;;;;;;4.75;3.88;;;23.90;53.00;;;;;;5050218;28;20091;-67
2021/07/23 09:34:01;;;;;;;4.15;3.75;;;23.90;53.00;;;;;;5048508;28;20106;-72
2021/07/23 09:36:29;;;;;;;4.53;4.13;;;23.90;52.90;;;;;;5057902;28;20698;-66
2021/07/23 09:39:11;;;;;;;5.72;3.97;;;23.90;52.80;;;;;;5057888;28;20045;-71
2021/07/23 09:41:38;;;;;;;5.03;3.78;;;23.90;52.70;;;;;;5060069;28;20918;-67
2021/07/23 09:44:08;;;;;;;4.80;3.92;;;23.90;52.60;;;;;;5057712;28;20526;-66
2021/07/23 09:46:41;;;;;;;5.53;4.20;;;23.90;52.60;;;;;;5054024;28;20765;-66
2021/07/23 09:49:23;;;;;;;12.02;4.47;;;23.90;52.50;;;;;;5052794;28;20048;-66
2021/07/23 09:51:51;;;;;;;4.50;4.10;;;23.90;52.50;;;;;;5052897;28;20088;-66
2021/07/23 09:54:19;;;;;;;4.65;4.13;;;23.90;52.60;;;;;;5061858;28;20124;-66
2021/07/23 09:56:47;;;;;;;5.22;4.60;;;24.00;52.50;;;;;;5051806;28;20049;-71
2021/07/23 09:59:54;;;;;;;4.78;4.30;;;24.00;52.50;;;;;;5048949;28;20049;-71
2021/07/23 10:02:23;;;;;;;7.43;4.28;;;24.00;52.50;;;;;;5048170;28;20041;-66
2021/07/23 10:05:06;;;;;;;5.28;4.18;;;24.00;52.50;;;;;;5053757;28;20156;-67
2021/07/23 10:07:40;;;;;;;4.63;4.03;;;24.00;52.50;;;;;;5052551;28;21728;-71
2021/07/23 10:10:11;;;;;;;4.50;3.97;;;24.10;52.50;;;;;;5056241;28;20119;-67
2021/07/23 10:12:40;;;;;;;5.28;3.85;;;24.10;52.60;;;;;;5054806;28;20124;-66
2021/07/23 10:15:09;;;;;;;3.92;3.60;;;24.10;52.50;;;;;;5054774;28;20132;-66
2021/07/23 10:17:37;;;;;;;4.70;3.92;;;24.10;52.40;;;;;;5052321;28;20321;-71
2021/07/23 10:20:04;;;;;;;4.60;4.18;;;24.20;52.40;;;;;;5054128;28;20065;-66
2021/07/23 10:22:32;;;;;;;6.03;4.00;;;24.10;52.20;;;;;;5055632;28;20063;-66
2021/07/23 10:25:00;;;;;;;7.72;4.65;;;24.10;52.20;;;;;;5053526;28;20040;-66
2021/07/23 10:27:28;;;;;;;7.88;3.92;;;24.20;52.10;;;;;;5050871;28;20126;-71
2021/07/23 10:29:55;;;;;;;3.80;3.50;;;24.20;52.50;;;;;;5046763;28;20049;-68
2021/07/23 10:32:35;;;;;;;3.83;3.30;;;24.20;52.50;;;;;;5053325;28;20041;-74
2021/07/23 10:35:29;;;;;;;3.93;3.53;;;24.20;52.30;;;;;;5049136;28;20128;-74
2021/07/23 10:38:04;;;;;;;4.65;4.25;;;24.20;52.10;;;;;;5048152;28;20293;-69
2021/07/23 10:40:34;;;;;;;5.60;3.63;;;24.20;52.00;;;;;;5055189;28;20124;-69
2021/07/23 10:43:22;;;;;;;7.20;3.95;;;24.20;51.90;;;;;;5064653;28;20049;-73
2021/07/23 10:45:49;;;;;;;4.82;3.90;;;24.20;51.80;;;;;;5056518;28;20044;-67
2021/07/23 10:48:45;;;;;;;6.22;4.05;;;24.20;51.50;;;;;;5057607;28;20046;-67
2021/07/23 10:51:52;;;;;;;5.88;3.60;;;24.20;51.40;;;;;;5049369;28;20610;-73
2021/07/23 10:54:23;;;;;;;5.10;4.18;;;24.20;51.10;;;;;;5050214;28;20052;-70
2021/07/23 10:57:11;;;;;;;5.47;4.00;;;24.20;51.00;;;;;;5054846;28;20120;-72
2021/07/23 10:59:51;;;;;;;4.95;4.20;;;24.20;51.00;;;;;;5054597;28;20221;-74
2021/07/23 11:02:42;;;;;;;4.37;3.97;;;24.20;51.10;;;;;;5049550;28;20072;-68
2021/07/23 11:05:15;;;;;;;5.25;4.10;;;24.20;51.00;;;;;;5050188;28;20068;-72
2021/07/23 11:07:43;;;;;;;6.43;4.13;;;24.20;50.80;;;;;;5056101;28;20099;-73
2021/07/23 11:10:16;;;;;;;4.78;4.13;;;24.30;50.70;;;;;;5057019;28;20068;-74
2021/07/23 11:12:46;;;;;;;4.50;4.07;;;24.20;50.80;;;;;;5057844;28;20128;-69
2021/07/23 11:15:13;;;;;;;4.30;3.90;;;24.20;50.70;;;;;;5049590;28;20051;-68
2021/07/23 11:17:49;;;;;;;5.00;4.10;;;24.20;50.50;;;;;;5055783;28;20091;-68
2021/07/23 11:20:23;;;;;;;4.43;4.03;;;24.30;50.30;;;;;;5040078;28;20384;-73
2021/07/23 11:22:51;;;;;;;4.63;4.13;;;24.30;50.10;;;;;;5055193;28;20724;-67
2021/07/23 11:25:19;;;;;;;4.53;4.13;;;24.30;50.00;;;;;;5059375;28;20046;-70
2021/07/23 11:27:50;;;;;;;4.65;4.18;;;24.30;50.20;;;;;;5060104;28;20461;-69
2021/07/23 11:30:25;;;;;;;5.18;4.50;;;24.40;50.80;;;;;;5054766;28;20045;-69
2021/07/23 11:32:56;;;;;;;7.72;4.30;;;24.40;51.00;;;;;;5057298;28;20124;-71
2021/07/23 11:35:25;;;;;;;5.85;4.10;;;24.40;51.00;;;;;;5055435;28;20071;-71
2021/07/23 11:37:54;;;;;;;4.93;4.43;;;24.40;51.00;;;;;;5057755;28;20072;-66
2021/07/23 11:40:23;;;;;;;4.63;4.10;;;24.50;51.10;;;;;;5057642;28;20128;-73
2021/07/23 11:42:54;;;;;;;4.30;3.90;;;24.50;51.20;;;;;;5055158;28;20132;-70
2021/07/23 11:45:37;;;;;;;4.82;4.30;;;24.50;51.10;;;;;;5048388;28;20061;-68
2021/07/23 11:48:09;;;;;;;5.07;4.00;;;24.50;51.20;;;;;;5054354;28;20051;-68
2021/07/23 11:50:37;;;;;;;6.93;3.85;;;24.60;51.20;;;;;;5054933;28;20120;-71
2021/07/23 11:53:06;;;;;;;4.10;3.67;;;24.60;51.00;;;;;;5057032;28;20124;-66
2021/07/23 11:55:39;;;;;;;5.53;3.72;;;24.70;51.10;;;;;;5050306;28;20037;-63
2021/07/23 11:58:07;;;;;;;4.20;3.80;;;24.70;50.90;;;;;;5057157;28;20083;-69
2021/07/23 12:00:35;;;;;;;4.22;3.83;;;24.70;50.80;;;;;;5070423;28;20124;-61
2021/07/23 12:03:24;;;;;;;4.85;3.80;;;24.70;50.90;;;;;;5055917;28;20110;-68
2021/07/23 12:05:52;;;;;;;7.32;3.83;;;24.80;50.90;;;;;;5059094;28;20064;-69
2021/07/23 12:08:21;;;;;;;4.15;3.72;;;24.80;50.60;;;;;;5063415;28;20073;-66
2021/07/23 12:10:53;;;;;;;4.10;3.78;;;24.80;50.50;;;;;;5055436;28;20487;-70
2021/07/23 12:13:21;;;;;;;7.15;4.22;;;24.90;50.50;;;;;;5053105;28;20040;-68
2021/07/23 12:15:51;;;;;;;4.53;3.97;;;24.90;50.30;;;;;;5054518;28;20076;-68
2021/07/23 12:18:20;;;;;;;3.70;3.40;;;24.90;50.10;;;;;;5068598;28;20115;-69
2021/07/23 12:20:49;;;;;;;4.22;3.38;;;24.90;50.00;;;;;;5062704;28;20048;-72
2021/07/23 12:23:24;;;;;;;3.60;3.30;;;24.90;49.80;;;;;;5060440;28;20056;-72
2021/07/23 12:25:52;;;;;;;4.47;4.07;;;24.90;49.70;;;;;;5053778;28;20053;-72
2021/07/23 12:28:20;;;;;;;5.50;3.83;;;24.90;49.60;;;;;;5049819;28;20132;-72
2021/07/23 12:30:48;;;;;;;4.18;3.63;;;24.90;49.60;;;;;;5053626;28;20052;-72
2021/07/23 12:33:27;;;;;;;4.40;4.00;;;24.90;49.60;;;;;;5059695;28;20041;-72
2021/07/23 12:36:01;;;;;;;4.50;3.97;;;24.90;49.50;;;;;;5049427;28;20045;-72
2021/07/23 12:38:29;;;;;;;3.97;3.65;;;24.90;49.50;;;;;;5060352;28;20048;-72
2021/07/23 12:41:02;;;;;;;3.80;3.50;;;24.90;49.40;;;;;;5048954;28;20045;-72
2021/07/23 12:43:30;;;;;;;3.50;3.20;;;24.90;49.30;;;;;;5048116;28;20127;-72
2021/07/23 12:45:57;;;;;;;3.90;3.08;;;24.90;49.40;;;;;;5049329;28;20766;-72
2021/07/23 12:48:33;;;;;;;3.55;3.25;;;24.90;49.30;;;;;;5049279;28;20047;-72
2021/07/23 12:51:07;;;;;;;4.13;3.72;;;24.90;49.30;;;;;;5049744;28;20049;-72
2021/07/23 12:53:34;;;;;;;3.70;3.40;;;24.90;49.30;;;;;;5049469;28;20049;-72
2021/07/23 12:56:10;;;;;;;3.80;3.50;;;24.90;49.30;;;;;;5049281;28;20045;-72
2021/07/23 12:58:42;;;;;;;3.80;3.50;;;24.90;49.30;;;;;;5048748;28;20053;-72
2021/07/23 13:01:11;;;;;;;3.92;3.55;;;24.90;49.20;;;;;;5048101;28;20051;-72